Bell Island, Canada
Current Conditions -  °F | °C
As of 4:00 AM on Friday 31 Oct 2014 (Local Time) from CYYT Reporting Station
Overcast Overcast  
Wind Chill: 45°   Ceiling: 1300
Heat Index: 48°   Visibility: 15mi
Dew Point: 46°   Wind: 8mph
Humidity: 93%   Direction: 270°W
Pressure: 29.74"   Gusts: NA
Location:  47.65°N, 52.93°W
Report Text: CYYT 310600Z 27007KT 15SM BKN013 OVC048 09/08 A2974 RMK SC6SC2 SLP073
Loading
Personal Weather Stations






























Interactive Weather Map
Tropical Storm Tracking
New forecast layout! Learn more

10-Day Weather Forecast

Advertisements
Track Severe Weather on mobile